Weather at Kavala Alexander the Great International Airport

Public forecast

Using degrees Celsius for public forecast. Weather courtesy of forecast.io.

Current aviation weather report (METAR) for Kavala Alexander the Great International Airport

2024/07/17 13:50 (retrieved 26 minutes ago)

LGKV 171350Z 20010KT 9999 FEW020 36/18 Q1010

Aviation forecast (TAF) for Kavala Alexander the Great International Airport

2024/07/17 12:10 (retrieved 2 hours ago)

TAF LGKV 171100Z 1712/1812 VRB03KT 9999 FEW030 TEMPO 1712/1718 22015KT